Current Weather

Karlovy Vary

Karlovy Vary, Czechia (LKKV)

Report from: Sunday, April 21, 2024 10:00 PM CEST
Current time: Sunday, April 21, 2024 10:34 PM CEST

Nearby weather – Weather history – Daily summaries
Weather forecast

Temperature0.0°C (32.0°F)
Wind chill-1.8°C (28.7°F)
Dew point-6.0°C (21.2°F)
Winds 3 kts (1.5 m/s, 3.5 mph) East-Northeast (70°)
Visibility6.2 mi. (10 km)
Clouds Few clouds 4,000 ft. (1,219 m)
Altimeter30.12 in.Hg (1020 mB)
Relative humidity64 %
Density altitude-2,000 ft. (-610 m)
Flight conditions Visual Meteorological Conditions
Raw dataLKKV 212000Z 07003KT 9999 FEW040 00/M06 Q1020
An error has occurred. This application may no longer respond until reloaded. Reload 🗙